sensor_id;sensor_type;location;lat;lon;timestamp;P1;durP1;ratioP1;P2;durP2;ratioP2
65289;SDS011;51893;59.754;10.110;2024-01-30T00:00:00;6.60;;;2.90;;
65289;SDS011;51893;59.754;10.110;2024-01-30T00:02:29;9.10;;;3.90;;
65289;SDS011;51893;59.754;10.110;2024-01-30T00:04:57;9.70;;;4.10;;
65289;SDS011;51893;59.754;10.110;2024-01-30T00:07:28;7.80;;;4.10;;
65289;SDS011;51893;59.754;10.110;2024-01-30T00:09:56;13.70;;;4.80;;
65289;SDS011;51893;59.754;10.110;2024-01-30T00:12:28;7.30;;;4.00;;
65289;SDS011;51893;59.754;10.110;2024-01-30T00:14:57;8.30;;;4.40;;
65289;SDS011;51893;59.754;10.110;2024-01-30T00:17:26;13.60;;;4.40;;
65289;SDS011;51893;59.754;10.110;2024-01-30T00:19:55;10.00;;;4.60;;
65289;SDS011;51893;59.754;10.110;2024-01-30T00:22:24;10.30;;;4.70;;
65289;SDS011;51893;59.754;10.110;2024-01-30T00:24:52;10.80;;;4.70;;
65289;SDS011;51893;59.754;10.110;2024-01-30T00:27:20;12.10;;;4.60;;
65289;SDS011;51893;59.754;10.110;2024-01-30T00:29:48;7.40;;;2.90;;
65289;SDS011;51893;59.754;10.110;2024-01-30T00:32:17;4.00;;;2.70;;
65289;SDS011;51893;59.754;10.110;2024-01-30T00:34:47;10.50;;;3.60;;
65289;SDS011;51893;59.754;10.110;2024-01-30T00:37:15;8.10;;;2.90;;
65289;SDS011;51893;59.754;10.110;2024-01-30T00:39:44;5.90;;;3.00;;
65289;SDS011;51893;59.754;10.110;2024-01-30T00:42:12;7.40;;;3.20;;
65289;SDS011;51893;59.754;10.110;2024-01-30T00:44:39;10.50;;;4.20;;
65289;SDS011;51893;59.754;10.110;2024-01-30T00:47:07;9.00;;;3.80;;
65289;SDS011;51893;59.754;10.110;2024-01-30T00:49:37;11.80;;;4.10;;
65289;SDS011;51893;59.754;10.110;2024-01-30T00:52:05;6.30;;;3.90;;
65289;SDS011;51893;59.754;10.110;2024-01-30T00:54:34;10.40;;;4.20;;
65289;SDS011;51893;59.754;10.110;2024-01-30T00:57:02;8.50;;;4.40;;
65289;SDS011;51893;59.754;10.110;2024-01-30T00:59:30;9.50;;;4.00;;
65289;SDS011;51893;59.754;10.110;2024-01-30T01:01:59;19.60;;;4.60;;
65289;SDS011;51893;59.754;10.110;2024-01-30T01:04:27;10.30;;;4.30;;
65289;SDS011;51893;59.754;10.110;2024-01-30T01:06:55;8.30;;;3.70;;
65289;SDS011;51893;59.754;10.110;2024-01-30T01:09:23;9.20;;;4.10;;
65289;SDS011;51893;59.754;10.110;2024-01-30T01:11:51;7.60;;;3.70;;
65289;SDS011;51893;59.754;10.110;2024-01-30T01:14:19;12.80;;;4.00;;
65289;SDS011;51893;59.754;10.110;2024-01-30T01:16:48;12.60;;;3.60;;
65289;SDS011;51893;59.754;10.110;2024-01-30T01:19:19;12.30;;;3.30;;
65289;SDS011;51893;59.754;10.110;2024-01-30T01:21:48;8.40;;;3.90;;
65289;SDS011;51893;59.754;10.110;2024-01-30T01:24:19;10.90;;;3.90;;
65289;SDS011;51893;59.754;10.110;2024-01-30T01:26:47;8.90;;;3.30;;
65289;SDS011;51893;59.754;10.110;2024-01-30T01:29:15;7.00;;;3.00;;
65289;SDS011;51893;59.754;10.110;2024-01-30T01:31:46;7.40;;;3.40;;
65289;SDS011;51893;59.754;10.110;2024-01-30T01:34:14;7.90;;;3.30;;
65289;SDS011;51893;59.754;10.110;2024-01-30T01:36:42;7.40;;;3.30;;
65289;SDS011;51893;59.754;10.110;2024-01-30T01:39:10;5.00;;;3.10;;
65289;SDS011;51893;59.754;10.110;2024-01-30T01:41:38;7.60;;;3.00;;
65289;SDS011;51893;59.754;10.110;2024-01-30T01:44:09;5.20;;;3.10;;
65289;SDS011;51893;59.754;10.110;2024-01-30T01:46:37;5.60;;;2.90;;
65289;SDS011;51893;59.754;10.110;2024-01-30T01:49:05;8.10;;;3.00;;
65289;SDS011;51893;59.754;10.110;2024-01-30T01:51:36;7.90;;;3.40;;
65289;SDS011;51893;59.754;10.110;2024-01-30T01:54:05;9.20;;;3.90;;
65289;SDS011;51893;59.754;10.110;2024-01-30T01:56:37;8.50;;;3.00;;
65289;SDS011;51893;59.754;10.110;2024-01-30T01:59:07;8.30;;;3.30;;
65289;SDS011;51893;59.754;10.110;2024-01-30T02:01:37;7.30;;;3.30;;
65289;SDS011;51893;59.754;10.110;2024-01-30T02:04:07;6.00;;;3.30;;
65289;SDS011;51893;59.754;10.110;2024-01-30T02:06:38;8.80;;;4.00;;
65289;SDS011;51893;59.754;10.110;2024-01-30T02:09:07;7.90;;;4.10;;
65289;SDS011;51893;59.754;10.110;2024-01-30T02:11:38;8.20;;;3.50;;
65289;SDS011;51893;59.754;10.110;2024-01-30T02:14:06;7.70;;;3.20;;
65289;SDS011;51893;59.754;10.110;2024-01-30T02:16:34;6.40;;;3.20;;
65289;SDS011;51893;59.754;10.110;2024-01-30T02:19:02;6.80;;;3.20;;
65289;SDS011;51893;59.754;10.110;2024-01-30T02:21:30;9.40;;;3.10;;
65289;SDS011;51893;59.754;10.110;2024-01-30T02:23:59;3.70;;;2.10;;
65289;SDS011;51893;59.754;10.110;2024-01-30T02:26:28;6.60;;;3.00;;
65289;SDS011;51893;59.754;10.110;2024-01-30T02:28:56;5.30;;;2.30;;
65289;SDS011;51893;59.754;10.110;2024-01-30T02:31:25;7.90;;;2.90;;
65289;SDS011;51893;59.754;10.110;2024-01-30T02:33:54;6.70;;;3.10;;
65289;SDS011;51893;59.754;10.110;2024-01-30T02:36:22;4.70;;;2.70;;
65289;SDS011;51893;59.754;10.110;2024-01-30T02:38:50;8.20;;;2.70;;
65289;SDS011;51893;59.754;10.110;2024-01-30T02:41:19;6.00;;;2.80;;
65289;SDS011;51893;59.754;10.110;2024-01-30T02:43:47;7.00;;;2.90;;
65289;SDS011;51893;59.754;10.110;2024-01-30T02:46:17;7.40;;;2.80;;
65289;SDS011;51893;59.754;10.110;2024-01-30T02:48:45;5.30;;;2.90;;
65289;SDS011;51893;59.754;10.110;2024-01-30T02:51:13;6.30;;;2.60;;
65289;SDS011;51893;59.754;10.110;2024-01-30T02:53:41;4.40;;;2.30;;
65289;SDS011;51893;59.754;10.110;2024-01-30T02:56:09;9.90;;;2.80;;
65289;SDS011;51893;59.754;10.110;2024-01-30T02:58:39;5.30;;;2.20;;
65289;SDS011;51893;59.754;10.110;2024-01-30T03:01:08;4.90;;;2.80;;
65289;SDS011;51893;59.754;10.110;2024-01-30T03:03:37;6.50;;;2.60;;
65289;SDS011;51893;59.754;10.110;2024-01-30T03:06:05;4.80;;;2.40;;
65289;SDS011;51893;59.754;10.110;2024-01-30T03:08:33;8.40;;;2.80;;
65289;SDS011;51893;59.754;10.110;2024-01-30T03:11:02;5.10;;;2.70;;
65289;SDS011;51893;59.754;10.110;2024-01-30T03:13:30;6.20;;;2.80;;
65289;SDS011;51893;59.754;10.110;2024-01-30T03:16:01;7.00;;;2.20;;
65289;SDS011;51893;59.754;10.110;2024-01-30T03:18:29;6.90;;;2.40;;
65289;SDS011;51893;59.754;10.110;2024-01-30T03:20:57;11.20;;;2.90;;
65289;SDS011;51893;59.754;10.110;2024-01-30T03:23:25;5.70;;;3.20;;
65289;SDS011;51893;59.754;10.110;2024-01-30T03:25:53;6.40;;;2.90;;
65289;SDS011;51893;59.754;10.110;2024-01-30T03:28:21;6.60;;;2.70;;
65289;SDS011;51893;59.754;10.110;2024-01-30T03:30:49;8.90;;;2.80;;
65289;SDS011;51893;59.754;10.110;2024-01-30T03:33:19;3.20;;;1.70;;
65289;SDS011;51893;59.754;10.110;2024-01-30T03:35:50;9.50;;;2.50;;
65289;SDS011;51893;59.754;10.110;2024-01-30T03:38:18;6.20;;;1.90;;
65289;SDS011;51893;59.754;10.110;2024-01-30T03:40:46;5.60;;;2.60;;
65289;SDS011;51893;59.754;10.110;2024-01-30T03:43:14;5.30;;;2.20;;
65289;SDS011;51893;59.754;10.110;2024-01-30T03:45:43;5.40;;;2.00;;
65289;SDS011;51893;59.754;10.110;2024-01-30T03:48:12;5.40;;;2.40;;
65289;SDS011;51893;59.754;10.110;2024-01-30T03:50:40;4.60;;;1.80;;
65289;SDS011;51893;59.754;10.110;2024-01-30T03:53:09;3.80;;;2.20;;
65289;SDS011;51893;59.754;10.110;2024-01-30T03:55:37;4.20;;;2.00;;
65289;SDS011;51893;59.754;10.110;2024-01-30T03:58:05;8.20;;;2.90;;
65289;SDS011;51893;59.754;10.110;2024-01-30T04:00:34;3.40;;;1.90;;
65289;SDS011;51893;59.754;10.110;2024-01-30T04:03:04;4.10;;;1.60;;
65289;SDS011;51893;59.754;10.110;2024-01-30T04:05:33;7.20;;;2.10;;
65289;SDS011;51893;59.754;10.110;2024-01-30T04:08:02;5.80;;;1.80;;
65289;SDS011;51893;59.754;10.110;2024-01-30T04:10:30;6.00;;;1.90;;
65289;SDS011;51893;59.754;10.110;2024-01-30T04:12:59;7.20;;;2.50;;
65289;SDS011;51893;59.754;10.110;2024-01-30T04:15:30;6.50;;;2.30;;
65289;SDS011;51893;59.754;10.110;2024-01-30T04:17:58;9.10;;;2.50;;
65289;SDS011;51893;59.754;10.110;2024-01-30T04:20:27;3.70;;;1.90;;
65289;SDS011;51893;59.754;10.110;2024-01-30T04:22:55;3.70;;;1.80;;
65289;SDS011;51893;59.754;10.110;2024-01-30T04:25:23;3.40;;;2.20;;
65289;SDS011;51893;59.754;10.110;2024-01-30T04:27:52;2.60;;;1.60;;
65289;SDS011;51893;59.754;10.110;2024-01-30T04:30:23;6.20;;;2.00;;
65289;SDS011;51893;59.754;10.110;2024-01-30T04:32:51;4.80;;;1.50;;
65289;SDS011;51893;59.754;10.110;2024-01-30T04:35:26;3.50;;;1.90;;
65289;SDS011;51893;59.754;10.110;2024-01-30T04:37:55;3.30;;;1.30;;
65289;SDS011;51893;59.754;10.110;2024-01-30T04:40:23;2.40;;;1.30;;
65289;SDS011;51893;59.754;10.110;2024-01-30T04:42:51;4.50;;;1.60;;
65289;SDS011;51893;59.754;10.110;2024-01-30T04:45:20;7.60;;;1.90;;
65289;SDS011;51893;59.754;10.110;2024-01-30T04:47:48;8.60;;;2.10;;
65289;SDS011;51893;59.754;10.110;2024-01-30T04:50:16;4.50;;;1.90;;
65289;SDS011;51893;59.754;10.110;2024-01-30T04:52:44;1.90;;;1.30;;
65289;SDS011;51893;59.754;10.110;2024-01-30T04:55:14;5.80;;;1.70;;
65289;SDS011;51893;59.754;10.110;2024-01-30T04:57:47;4.20;;;1.70;;
65289;SDS011;51893;59.754;10.110;2024-01-30T05:00:18;2.80;;;1.90;;
65289;SDS011;51893;59.754;10.110;2024-01-30T05:02:47;2.80;;;2.00;;
65289;SDS011;51893;59.754;10.110;2024-01-30T05:05:15;2.40;;;1.70;;
65289;SDS011;51893;59.754;10.110;2024-01-30T05:07:44;3.40;;;1.50;;
65289;SDS011;51893;59.754;10.110;2024-01-30T05:10:15;2.70;;;1.40;;
65289;SDS011;51893;59.754;10.110;2024-01-30T05:12:43;2.40;;;1.40;;
65289;SDS011;51893;59.754;10.110;2024-01-30T05:15:13;4.80;;;1.40;;
65289;SDS011;51893;59.754;10.110;2024-01-30T05:17:44;2.60;;;1.40;;
65289;SDS011;51893;59.754;10.110;2024-01-30T05:20:13;4.60;;;1.80;;
65289;SDS011;51893;59.754;10.110;2024-01-30T05:22:41;5.10;;;1.60;;
65289;SDS011;51893;59.754;10.110;2024-01-30T05:25:16;3.70;;;1.70;;
65289;SDS011;51893;59.754;10.110;2024-01-30T05:27:44;3.90;;;1.60;;
65289;SDS011;51893;59.754;10.110;2024-01-30T05:30:14;5.10;;;1.50;;
65289;SDS011;51893;59.754;10.110;2024-01-30T05:32:43;4.00;;;1.40;;
65289;SDS011;51893;59.754;10.110;2024-01-30T05:35:11;2.90;;;1.40;;
65289;SDS011;51893;59.754;10.110;2024-01-30T05:37:39;3.30;;;1.40;;
65289;SDS011;51893;59.754;10.110;2024-01-30T05:40:07;4.60;;;1.80;;
65289;SDS011;51893;59.754;10.110;2024-01-30T05:42:36;4.20;;;1.70;;
65289;SDS011;51893;59.754;10.110;2024-01-30T05:45:04;8.60;;;2.00;;
65289;SDS011;51893;59.754;10.110;2024-01-30T05:47:33;12.20;;;2.00;;
65289;SDS011;51893;59.754;10.110;2024-01-30T05:50:04;4.20;;;2.20;;
65289;SDS011;51893;59.754;10.110;2024-01-30T05:52:33;6.30;;;2.20;;
65289;SDS011;51893;59.754;10.110;2024-01-30T05:55:01;5.90;;;2.00;;
65289;SDS011;51893;59.754;10.110;2024-01-30T05:57:30;4.20;;;2.00;;
65289;SDS011;51893;59.754;10.110;2024-01-30T05:59:58;5.30;;;2.10;;
65289;SDS011;51893;59.754;10.110;2024-01-30T06:02:27;4.90;;;2.00;;
65289;SDS011;51893;59.754;10.110;2024-01-30T06:04:55;4.60;;;1.90;;
65289;SDS011;51893;59.754;10.110;2024-01-30T06:07:23;5.30;;;1.60;;
65289;SDS011;51893;59.754;10.110;2024-01-30T06:09:51;6.40;;;1.80;;
65289;SDS011;51893;59.754;10.110;2024-01-30T06:12:19;8.10;;;1.90;;
65289;SDS011;51893;59.754;10.110;2024-01-30T06:14:47;2.80;;;1.70;;
65289;SDS011;51893;59.754;10.110;2024-01-30T06:17:15;4.40;;;1.80;;
65289;SDS011;51893;59.754;10.110;2024-01-30T06:19:44;4.50;;;1.90;;
65289;SDS011;51893;59.754;10.110;2024-01-30T06:22:11;6.30;;;1.80;;
65289;SDS011;51893;59.754;10.110;2024-01-30T06:24:40;1.70;;;1.60;;
65289;SDS011;51893;59.754;10.110;2024-01-30T06:27:08;7.50;;;1.80;;
65289;SDS011;51893;59.754;10.110;2024-01-30T06:29:36;6.20;;;1.80;;
65289;SDS011;51893;59.754;10.110;2024-01-30T06:32:05;2.90;;;1.80;;
65289;SDS011;51893;59.754;10.110;2024-01-30T06:34:33;5.80;;;2.40;;
65289;SDS011;51893;59.754;10.110;2024-01-30T06:37:01;3.60;;;2.00;;
65289;SDS011;51893;59.754;10.110;2024-01-30T06:39:30;2.60;;;1.60;;
65289;SDS011;51893;59.754;10.110;2024-01-30T06:41:58;6.60;;;1.90;;
65289;SDS011;51893;59.754;10.110;2024-01-30T06:44:26;6.70;;;2.20;;
65289;SDS011;51893;59.754;10.110;2024-01-30T06:46:56;4.90;;;1.90;;
65289;SDS011;51893;59.754;10.110;2024-01-30T06:49:24;4.60;;;2.20;;
65289;SDS011;51893;59.754;10.110;2024-01-30T06:51:53;4.30;;;1.80;;
65289;SDS011;51893;59.754;10.110;2024-01-30T06:54:20;6.50;;;2.30;;
65289;SDS011;51893;59.754;10.110;2024-01-30T06:56:48;4.60;;;2.10;;
65289;SDS011;51893;59.754;10.110;2024-01-30T06:59:17;3.90;;;2.10;;
65289;SDS011;51893;59.754;10.110;2024-01-30T07:01:45;8.00;;;2.60;;
65289;SDS011;51893;59.754;10.110;2024-01-30T07:04:13;5.60;;;2.10;;
65289;SDS011;51893;59.754;10.110;2024-01-30T07:06:42;4.80;;;2.00;;
65289;SDS011;51893;59.754;10.110;2024-01-30T07:09:10;6.60;;;2.90;;
65289;SDS011;51893;59.754;10.110;2024-01-30T07:11:38;5.00;;;1.80;;
65289;SDS011;51893;59.754;10.110;2024-01-30T07:14:06;4.60;;;1.60;;
65289;SDS011;51893;59.754;10.110;2024-01-30T07:16:35;3.60;;;1.60;;
65289;SDS011;51893;59.754;10.110;2024-01-30T07:19:03;5.70;;;2.00;;
65289;SDS011;51893;59.754;10.110;2024-01-30T07:21:32;4.70;;;1.90;;
65289;SDS011;51893;59.754;10.110;2024-01-30T07:24:00;3.40;;;2.30;;
65289;SDS011;51893;59.754;10.110;2024-01-30T07:26:29;4.40;;;1.90;;
65289;SDS011;51893;59.754;10.110;2024-01-30T07:28:58;3.80;;;2.00;;
65289;SDS011;51893;59.754;10.110;2024-01-30T07:31:26;2.80;;;1.40;;
65289;SDS011;51893;59.754;10.110;2024-01-30T07:33:58;5.70;;;2.00;;
65289;SDS011;51893;59.754;10.110;2024-01-30T07:36:27;4.10;;;2.00;;
65289;SDS011;51893;59.754;10.110;2024-01-30T07:38:55;3.70;;;1.80;;
65289;SDS011;51893;59.754;10.110;2024-01-30T07:41:23;2.70;;;1.50;;
65289;SDS011;51893;59.754;10.110;2024-01-30T07:43:53;1.20;;;1.10;;
65289;SDS011;51893;59.754;10.110;2024-01-30T07:46:23;7.30;;;1.80;;
65289;SDS011;51893;59.754;10.110;2024-01-30T07:48:51;8.10;;;2.20;;
65289;SDS011;51893;59.754;10.110;2024-01-30T07:51:22;5.20;;;2.80;;
65289;SDS011;51893;59.754;10.110;2024-01-30T07:53:50;4.10;;;2.30;;
65289;SDS011;51893;59.754;10.110;2024-01-30T07:56:18;7.30;;;2.60;;
65289;SDS011;51893;59.754;10.110;2024-01-30T07:58:46;4.60;;;2.40;;
65289;SDS011;51893;59.754;10.110;2024-01-30T08:01:15;10.40;;;2.40;;
65289;SDS011;51893;59.754;10.110;2024-01-30T08:03:43;6.70;;;2.30;;
65289;SDS011;51893;59.754;10.110;2024-01-30T08:06:12;7.50;;;2.10;;
65289;SDS011;51893;59.754;10.110;2024-01-30T08:08:41;4.00;;;2.00;;
65289;SDS011;51893;59.754;10.110;2024-01-30T08:11:10;2.80;;;1.60;;
65289;SDS011;51893;59.754;10.110;2024-01-30T08:13:38;4.90;;;2.10;;
65289;SDS011;51893;59.754;10.110;2024-01-30T08:16:06;7.00;;;2.00;;
65289;SDS011;51893;59.754;10.110;2024-01-30T08:18:36;7.30;;;2.00;;
65289;SDS011;51893;59.754;10.110;2024-01-30T08:21:06;2.50;;;2.00;;
65289;SDS011;51893;59.754;10.110;2024-01-30T08:23:34;5.10;;;2.10;;
65289;SDS011;51893;59.754;10.110;2024-01-30T08:26:03;4.40;;;2.50;;
65289;SDS011;51893;59.754;10.110;2024-01-30T08:28:33;6.70;;;2.00;;
65289;SDS011;51893;59.754;10.110;2024-01-30T08:31:04;6.20;;;2.30;;
65289;SDS011;51893;59.754;10.110;2024-01-30T08:33:32;6.20;;;2.20;;
65289;SDS011;51893;59.754;10.110;2024-01-30T08:36:00;6.90;;;2.10;;
65289;SDS011;51893;59.754;10.110;2024-01-30T08:38:29;5.00;;;2.00;;
65289;SDS011;51893;59.754;10.110;2024-01-30T08:40:57;2.20;;;1.60;;
65289;SDS011;51893;59.754;10.110;2024-01-30T08:43:25;2.30;;;1.20;;
65289;SDS011;51893;59.754;10.110;2024-01-30T08:45:54;4.40;;;2.00;;
65289;SDS011;51893;59.754;10.110;2024-01-30T08:48:21;1.50;;;1.40;;
65289;SDS011;51893;59.754;10.110;2024-01-30T08:50:50;5.00;;;1.90;;
65289;SDS011;51893;59.754;10.110;2024-01-30T08:53:19;2.30;;;1.40;;
65289;SDS011;51893;59.754;10.110;2024-01-30T08:55:49;4.40;;;2.20;;
65289;SDS011;51893;59.754;10.110;2024-01-30T08:58:17;10.50;;;2.30;;
65289;SDS011;51893;59.754;10.110;2024-01-30T09:00:47;3.20;;;1.60;;
65289;SDS011;51893;59.754;10.110;2024-01-30T09:03:16;3.70;;;2.00;;
65289;SDS011;51893;59.754;10.110;2024-01-30T09:05:44;1.10;;;0.90;;
65289;SDS011;51893;59.754;10.110;2024-01-30T09:08:14;6.60;;;2.30;;
65289;SDS011;51893;59.754;10.110;2024-01-30T09:10:43;2.70;;;1.70;;
65289;SDS011;51893;59.754;10.110;2024-01-30T09:13:13;6.80;;;2.00;;
65289;SDS011;51893;59.754;10.110;2024-01-30T09:15:44;3.30;;;1.80;;
65289;SDS011;51893;59.754;10.110;2024-01-30T09:18:12;8.60;;;2.20;;
65289;SDS011;51893;59.754;10.110;2024-01-30T09:20:40;3.30;;;2.10;;
65289;SDS011;51893;59.754;10.110;2024-01-30T09:23:09;4.70;;;1.90;;
65289;SDS011;51893;59.754;10.110;2024-01-30T09:25:37;1.70;;;1.60;;
65289;SDS011;51893;59.754;10.110;2024-01-30T09:28:05;3.70;;;1.90;;
65289;SDS011;51893;59.754;10.110;2024-01-30T09:30:36;6.60;;;3.40;;
65289;SDS011;51893;59.754;10.110;2024-01-30T09:33:05;4.10;;;2.20;;
65289;SDS011;51893;59.754;10.110;2024-01-30T09:35:36;7.60;;;2.80;;
65289;SDS011;51893;59.754;10.110;2024-01-30T09:38:04;8.50;;;2.50;;
65289;SDS011;51893;59.754;10.110;2024-01-30T09:40:33;6.00;;;2.70;;
65289;SDS011;51893;59.754;10.110;2024-01-30T09:43:01;3.00;;;1.90;;
65289;SDS011;51893;59.754;10.110;2024-01-30T09:45:32;8.80;;;3.00;;
65289;SDS011;51893;59.754;10.110;2024-01-30T09:48:02;4.80;;;2.40;;
65289;SDS011;51893;59.754;10.110;2024-01-30T09:50:32;3.70;;;2.10;;
65289;SDS011;51893;59.754;10.110;2024-01-30T09:53:03;7.90;;;2.50;;
65289;SDS011;51893;59.754;10.110;2024-01-30T09:55:32;3.60;;;2.00;;
65289;SDS011;51893;59.754;10.110;2024-01-30T09:58:01;4.60;;;2.30;;
65289;SDS011;51893;59.754;10.110;2024-01-30T10:00:31;6.60;;;2.00;;
65289;SDS011;51893;59.754;10.110;2024-01-30T10:02:59;6.50;;;2.50;;
65289;SDS011;51893;59.754;10.110;2024-01-30T10:05:31;7.60;;;3.30;;
65289;SDS011;51893;59.754;10.110;2024-01-30T10:08:06;5.80;;;2.30;;
65289;SDS011;51893;59.754;10.110;2024-01-30T10:10:38;4.10;;;2.50;;
65289;SDS011;51893;59.754;10.110;2024-01-30T10:13:06;5.40;;;2.40;;
65289;SDS011;51893;59.754;10.110;2024-01-30T10:15:37;7.30;;;2.50;;
65289;SDS011;51893;59.754;10.110;2024-01-30T10:18:07;5.00;;;2.40;;
65289;SDS011;51893;59.754;10.110;2024-01-30T10:20:38;4.90;;;2.20;;
65289;SDS011;51893;59.754;10.110;2024-01-30T10:23:06;5.70;;;2.00;;
65289;SDS011;51893;59.754;10.110;2024-01-30T10:25:35;7.30;;;3.70;;
65289;SDS011;51893;59.754;10.110;2024-01-30T10:28:05;7.90;;;2.40;;
65289;SDS011;51893;59.754;10.110;2024-01-30T10:30:34;5.00;;;2.60;;
65289;SDS011;51893;59.754;10.110;2024-01-30T10:33:03;7.50;;;3.40;;
65289;SDS011;51893;59.754;10.110;2024-01-30T10:35:32;4.10;;;2.30;;
65289;SDS011;51893;59.754;10.110;2024-01-30T10:38:01;8.20;;;2.90;;
65289;SDS011;51893;59.754;10.110;2024-01-30T10:40:31;3.70;;;2.20;;
65289;SDS011;51893;59.754;10.110;2024-01-30T10:43:09;6.20;;;2.20;;
65289;SDS011;51893;59.754;10.110;2024-01-30T10:45:43;4.30;;;2.30;;
65289;SDS011;51893;59.754;10.110;2024-01-30T10:48:18;5.00;;;2.40;;
65289;SDS011;51893;59.754;10.110;2024-01-30T10:50:55;8.80;;;2.80;;
65289;SDS011;51893;59.754;10.110;2024-01-30T10:53:30;3.70;;;2.40;;
65289;SDS011;51893;59.754;10.110;2024-01-30T10:56:02;5.40;;;2.70;;
65289;SDS011;51893;59.754;10.110;2024-01-30T10:58:33;7.00;;;2.50;;
65289;SDS011;51893;59.754;10.110;2024-01-30T11:01:03;12.30;;;2.20;;
65289;SDS011;51893;59.754;10.110;2024-01-30T11:03:34;5.70;;;1.90;;
65289;SDS011;51893;59.754;10.110;2024-01-30T11:06:05;6.70;;;2.10;;
65289;SDS011;51893;59.754;10.110;2024-01-30T11:08:33;4.20;;;2.50;;
65289;SDS011;51893;59.754;10.110;2024-01-30T11:11:01;8.30;;;2.90;;
65289;SDS011;51893;59.754;10.110;2024-01-30T11:13:31;7.60;;;2.70;;
65289;SDS011;51893;59.754;10.110;2024-01-30T11:16:04;3.90;;;2.30;;
65289;SDS011;51893;59.754;10.110;2024-01-30T11:18:35;4.60;;;2.40;;
65289;SDS011;51893;59.754;10.110;2024-01-30T11:21:06;6.40;;;2.50;;
65289;SDS011;51893;59.754;10.110;2024-01-30T11:23:34;5.40;;;2.70;;
65289;SDS011;51893;59.754;10.110;2024-01-30T11:26:04;5.10;;;2.30;;
65289;SDS011;51893;59.754;10.110;2024-01-30T11:28:37;7.70;;;2.20;;
65289;SDS011;51893;59.754;10.110;2024-01-30T11:31:07;7.80;;;2.70;;
65289;SDS011;51893;59.754;10.110;2024-01-30T11:33:36;6.60;;;2.20;;
65289;SDS011;51893;59.754;10.110;2024-01-30T11:36:04;3.20;;;2.40;;
65289;SDS011;51893;59.754;10.110;2024-01-30T11:38:35;7.90;;;2.40;;
65289;SDS011;51893;59.754;10.110;2024-01-30T11:41:04;4.70;;;2.40;;
65289;SDS011;51893;59.754;10.110;2024-01-30T11:43:35;4.60;;;2.40;;
65289;SDS011;51893;59.754;10.110;2024-01-30T11:46:06;6.60;;;1.70;;
65289;SDS011;51893;59.754;10.110;2024-01-30T11:48:35;3.50;;;1.70;;
65289;SDS011;51893;59.754;10.110;2024-01-30T11:51:04;6.90;;;2.80;;
65289;SDS011;51893;59.754;10.110;2024-01-30T11:53:33;6.40;;;3.30;;
65289;SDS011;51893;59.754;10.110;2024-01-30T11:56:12;4.90;;;2.10;;
65289;SDS011;51893;59.754;10.110;2024-01-30T11:58:42;3.90;;;1.90;;
65289;SDS011;51893;59.754;10.110;2024-01-30T12:01:13;10.50;;;2.90;;
65289;SDS011;51893;59.754;10.110;2024-01-30T12:03:41;3.90;;;2.50;;
65289;SDS011;51893;59.754;10.110;2024-01-30T12:06:15;5.00;;;2.50;;
65289;SDS011;51893;59.754;10.110;2024-01-30T12:08:59;6.60;;;2.60;;
65289;SDS011;51893;59.754;10.110;2024-01-30T12:11:28;6.40;;;2.90;;
65289;SDS011;51893;59.754;10.110;2024-01-30T12:13:58;5.80;;;2.60;;
65289;SDS011;51893;59.754;10.110;2024-01-30T12:16:26;8.70;;;3.00;;
65289;SDS011;51893;59.754;10.110;2024-01-30T12:19:01;8.00;;;4.00;;
65289;SDS011;51893;59.754;10.110;2024-01-30T12:21:30;4.50;;;3.00;;
65289;SDS011;51893;59.754;10.110;2024-01-30T12:23:59;8.60;;;3.60;;
65289;SDS011;51893;59.754;10.110;2024-01-30T12:26:28;5.60;;;2.80;;
65289;SDS011;51893;59.754;10.110;2024-01-30T12:28:56;2.60;;;2.20;;
65289;SDS011;51893;59.754;10.110;2024-01-30T12:31:32;3.20;;;1.90;;
65289;SDS011;51893;59.754;10.110;2024-01-30T12:34:01;1.80;;;1.40;;
65289;SDS011;51893;59.754;10.110;2024-01-30T12:36:29;3.80;;;1.70;;
65289;SDS011;51893;59.754;10.110;2024-01-30T12:38:59;5.20;;;1.70;;
65289;SDS011;51893;59.754;10.110;2024-01-30T12:41:27;6.00;;;2.50;;
65289;SDS011;51893;59.754;10.110;2024-01-30T12:43:57;4.50;;;2.20;;
65289;SDS011;51893;59.754;10.110;2024-01-30T12:46:30;4.40;;;2.30;;
65289;SDS011;51893;59.754;10.110;2024-01-30T12:48:58;4.40;;;2.50;;
65289;SDS011;51893;59.754;10.110;2024-01-30T12:51:27;5.90;;;2.80;;
65289;SDS011;51893;59.754;10.110;2024-01-30T12:53:55;4.20;;;2.70;;
65289;SDS011;51893;59.754;10.110;2024-01-30T12:56:23;5.70;;;2.70;;
65289;SDS011;51893;59.754;10.110;2024-01-30T12:58:51;3.00;;;2.40;;
65289;SDS011;51893;59.754;10.110;2024-01-30T13:01:22;2.50;;;1.60;;
65289;SDS011;51893;59.754;10.110;2024-01-30T13:03:50;3.20;;;2.00;;
65289;SDS011;51893;59.754;10.110;2024-01-30T13:06:20;4.70;;;2.10;;
65289;SDS011;51893;59.754;10.110;2024-01-30T13:08:49;2.90;;;1.80;;
65289;SDS011;51893;59.754;10.110;2024-01-30T13:11:18;2.40;;;1.40;;
65289;SDS011;51893;59.754;10.110;2024-01-30T13:13:51;3.10;;;1.60;;
65289;SDS011;51893;59.754;10.110;2024-01-30T13:16:19;4.40;;;2.00;;
65289;SDS011;51893;59.754;10.110;2024-01-30T13:18:50;5.60;;;2.90;;
65289;SDS011;51893;59.754;10.110;2024-01-30T13:21:19;6.50;;;2.40;;
65289;SDS011;51893;59.754;10.110;2024-01-30T13:23:47;2.30;;;1.40;;
65289;SDS011;51893;59.754;10.110;2024-01-30T13:26:15;2.00;;;1.40;;
65289;SDS011;51893;59.754;10.110;2024-01-30T13:28:43;3.20;;;1.80;;
65289;SDS011;51893;59.754;10.110;2024-01-30T13:31:14;5.40;;;1.70;;
65289;SDS011;51893;59.754;10.110;2024-01-30T13:33:42;2.20;;;1.40;;
65289;SDS011;51893;59.754;10.110;2024-01-30T13:36:11;1.80;;;1.60;;
65289;SDS011;51893;59.754;10.110;2024-01-30T13:38:39;3.90;;;2.10;;
65289;SDS011;51893;59.754;10.110;2024-01-30T13:41:08;3.50;;;2.00;;
65289;SDS011;51893;59.754;10.110;2024-01-30T13:43:36;6.70;;;2.40;;
65289;SDS011;51893;59.754;10.110;2024-01-30T13:46:04;3.50;;;1.60;;
65289;SDS011;51893;59.754;10.110;2024-01-30T13:48:32;6.20;;;1.60;;
65289;SDS011;51893;59.754;10.110;2024-01-30T13:51:01;5.10;;;2.00;;
65289;SDS011;51893;59.754;10.110;2024-01-30T13:53:29;5.50;;;2.50;;
65289;SDS011;51893;59.754;10.110;2024-01-30T13:55:57;5.20;;;2.20;;
65289;SDS011;51893;59.754;10.110;2024-01-30T13:58:25;6.30;;;2.80;;
65289;SDS011;51893;59.754;10.110;2024-01-30T14:00:53;5.20;;;2.20;;
65289;SDS011;51893;59.754;10.110;2024-01-30T14:03:22;3.00;;;1.90;;
65289;SDS011;51893;59.754;10.110;2024-01-30T14:05:50;3.30;;;1.70;;
65289;SDS011;51893;59.754;10.110;2024-01-30T14:08:18;4.40;;;1.30;;
65289;SDS011;51893;59.754;10.110;2024-01-30T14:10:48;3.90;;;2.50;;
65289;SDS011;51893;59.754;10.110;2024-01-30T14:13:17;4.30;;;2.30;;
65289;SDS011;51893;59.754;10.110;2024-01-30T14:15:45;2.70;;;1.60;;
65289;SDS011;51893;59.754;10.110;2024-01-30T14:18:13;2.80;;;1.70;;
65289;SDS011;51893;59.754;10.110;2024-01-30T14:20:41;2.80;;;2.10;;
65289;SDS011;51893;59.754;10.110;2024-01-30T14:23:10;6.40;;;2.60;;
65289;SDS011;51893;59.754;10.110;2024-01-30T14:25:38;3.40;;;2.10;;
65289;SDS011;51893;59.754;10.110;2024-01-30T14:28:08;4.70;;;2.00;;
65289;SDS011;51893;59.754;10.110;2024-01-30T14:30:36;4.80;;;1.90;;
65289;SDS011;51893;59.754;10.110;2024-01-30T14:33:05;3.70;;;2.10;;
65289;SDS011;51893;59.754;10.110;2024-01-30T14:35:34;3.40;;;1.90;;
65289;SDS011;51893;59.754;10.110;2024-01-30T14:38:03;2.80;;;1.50;;
65289;SDS011;51893;59.754;10.110;2024-01-30T14:40:32;4.80;;;2.20;;
65289;SDS011;51893;59.754;10.110;2024-01-30T14:43:01;2.80;;;1.40;;